Uni-arise — 3FSV7 — position and weather

sailwx.info

Track history (hours):
 
Tides and Currents Weather Stations Pressure Air Temp Water Temp Dewpoint Dewpoint Depression Visibility Wind Speed Wind Dir Waves Ship Positions

Uni-arise

Last reported at 2016-Jun-25 09:33 UTC. Time now 2016-Jun-26 09:59 UTC.
Position N 22°50' E 120°01'.

Length 165 m; draft 8.1 m.

Type: Ship (hazmat cat C). MMSI: 351608000.

Date/timePositionNaut miles runAvg speedWind from/ knotsBaromVisibWave heightAir tempDewpointWater temp
2016-Jun-25 09:33N 22°50' E 120°01'1414.1
2016-Jun-25 08:33N 22°38' E 120°08'1111.2
2016-Jun-25 07:33N 22°33' E 120°19'1 0.0
2016-Jun-24 12:33N 22°33' E 120°19'6 6.2
2016-Jun-24 11:33N 22°32' E 120°12'1515.1
2016-Jun-24 10:33N 22°31' E 119°56'31216.2
2016-Jun-23 15:17N 22°07' E 114°20'1710.1
2016-Jun-23 13:33N 22°19' E 114°06'2 1.9
2016-Jun-23 12:32N 22°20' E 114°08'0 0.0
2016-Jun-23 11:32N 22°20' E 114°08'0 0.0
2016-Jun-23 10:29N 22°20' E 114°08'0 0.0
2016-Jun-23 09:31N 22°20' E 114°08'0 0.0
2016-Jun-23 08:25N 22°20' E 114°08'0 0.0
2016-Jun-23 07:25N 22°20' E 114°08'0 0.0
2016-Jun-23 05:32N 22°20' E 114°08'0 0.0
2016-Jun-23 04:28N 22°20' E 114°08'0 0.0
2016-Jun-23 03:28N 22°20' E 114°08'0 0.0
2016-Jun-23 02:28N 22°20' E 114°08'0 0.0
2016-Jun-23 01:29N 22°20' E 114°08'0 0.0
2016-Jun-23 00:31N 22°20' E 114°08'0 0.0
2016-Jun-22 23:31N 22°20' E 114°08'13 5.7
2016-Jun-22 21:11N 22°08' E 114°15'33011.5
2016-Jun-21 16:30N 24°04' E 119°51'  
2016-Jun-16 10:10N 33°56' E 134°55'914.9
2016-Jun-16 09:33N 34°05' E 134°56'1211.7
2016-Jun-16 08:32N 34°17' E 134°58'1313.1
2016-Jun-16 07:33N 34°27' E 135°07'1413.4
2016-Jun-16 06:33N 34°39' E 135°16'2 2.1
2016-Jun-16 05:31N 34°40' E 135°14'0 0.0
2016-Jun-16 04:31N 34°40' E 135°14'0 0.0
2016-Jun-16 03:25N 34°40' E 135°14'0 0.0
2016-Jun-16 02:31N 34°40' E 135°14'0 0.0
2016-Jun-16 01:31N 34°40' E 135°14'0 0.0
2016-Jun-16 00:31N 34°40' E 135°14'0 0.0
2016-Jun-15 23:31N 34°40' E 135°14'0 0.0
2016-Jun-15 22:31N 34°40' E 135°14'5 5.4
2016-Jun-15 21:33N 34°38' E 135°20'3 3.1
2016-Jun-15 20:29N 34°39' E 135°24'0 0.0
2016-Jun-15 19:29N 34°39' E 135°24'0 0.0
2016-Jun-15 18:29N 34°39' E 135°24'0 0.0
2016-Jun-15 17:29N 34°39' E 135°24'0 0.0
2016-Jun-15 16:29N 34°39' E 135°24'0 0.0
2016-Jun-15 15:29N 34°39' E 135°24'0 0.0
2016-Jun-15 14:29N 34°39' E 135°24'4 4.1
2016-Jun-15 13:32N 34°36' E 135°21'1414.8
2016-Jun-15 12:34N 34°26' E 135°08'1414.2
2016-Jun-15 11:33N 34°14' E 134°59'1111.3
2016-Jun-15 10:32N 34°02' E 134°60'  
Track history (hours):
 
Tides and Currents Weather Stations Pressure Air Temp Water Temp Dewpoint Dewpoint Depression Visibility Wind Speed Wind Dir Waves Ship Positions

Uni-arise

Last reported at 2016-Jun-25 09:33 UTC. Time now 2016-Jun-26 09:59 UTC.
Position N 22°50' E 120°01'.

Length 165 m; draft 8.1 m.

Type: Ship (hazmat cat C). MMSI: 351608000.

Date/timePositionNaut miles runAvg speedWind from/ knotsBaromVisibWave heightAir tempDewpointWater temp
2016-Jun-25 09:33N 22°50' E 120°01'1414.1
2016-Jun-25 08:33N 22°38' E 120°08'1111.2
2016-Jun-25 07:33N 22°33' E 120°19'1 0.0
2016-Jun-24 12:33N 22°33' E 120°19'6 6.2
2016-Jun-24 11:33N 22°32' E 120°12'1515.1
2016-Jun-24 10:33N 22°31' E 119°56'31216.2
2016-Jun-23 15:17N 22°07' E 114°20'1710.1
2016-Jun-23 13:33N 22°19' E 114°06'2 1.9
2016-Jun-23 12:32N 22°20' E 114°08'0 0.0
2016-Jun-23 11:32N 22°20' E 114°08'0 0.0
2016-Jun-23 10:29N 22°20' E 114°08'0 0.0
2016-Jun-23 09:31N 22°20' E 114°08'0 0.0
2016-Jun-23 08:25N 22°20' E 114°08'0 0.0
2016-Jun-23 07:25N 22°20' E 114°08'0 0.0
2016-Jun-23 05:32N 22°20' E 114°08'0 0.0
2016-Jun-23 04:28N 22°20' E 114°08'0 0.0
2016-Jun-23 03:28N 22°20' E 114°08'0 0.0
2016-Jun-23 02:28N 22°20' E 114°08'0 0.0
2016-Jun-23 01:29N 22°20' E 114°08'0 0.0
2016-Jun-23 00:31N 22°20' E 114°08'0 0.0
2016-Jun-22 23:31N 22°20' E 114°08'13 5.7
2016-Jun-22 21:11N 22°08' E 114°15'33011.5
2016-Jun-21 16:30N 24°04' E 119°51'  
2016-Jun-16 10:10N 33°56' E 134°55'914.9
2016-Jun-16 09:33N 34°05' E 134°56'1211.7
2016-Jun-16 08:32N 34°17' E 134°58'1313.1
2016-Jun-16 07:33N 34°27' E 135°07'1413.4
2016-Jun-16 06:33N 34°39' E 135°16'2 2.1
2016-Jun-16 05:31N 34°40' E 135°14'0 0.0
2016-Jun-16 04:31N 34°40' E 135°14'0 0.0
2016-Jun-16 03:25N 34°40' E 135°14'0 0.0
2016-Jun-16 02:31N 34°40' E 135°14'0 0.0
2016-Jun-16 01:31N 34°40' E 135°14'0 0.0
2016-Jun-16 00:31N 34°40' E 135°14'0 0.0
2016-Jun-15 23:31N 34°40' E 135°14'0 0.0
2016-Jun-15 22:31N 34°40' E 135°14'5 5.4
2016-Jun-15 21:33N 34°38' E 135°20'3 3.1
2016-Jun-15 20:29N 34°39' E 135°24'0 0.0
2016-Jun-15 19:29N 34°39' E 135°24'0 0.0
2016-Jun-15 18:29N 34°39' E 135°24'0 0.0
2016-Jun-15 17:29N 34°39' E 135°24'0 0.0
2016-Jun-15 16:29N 34°39' E 135°24'0 0.0
2016-Jun-15 15:29N 34°39' E 135°24'0 0.0
2016-Jun-15 14:29N 34°39' E 135°24'4 4.1
2016-Jun-15 13:32N 34°36' E 135°21'1414.8
2016-Jun-15 12:34N 34°26' E 135°08'1414.2
2016-Jun-15 11:33N 34°14' E 134°59'1111.3
2016-Jun-15 10:32N 34°02' E 134°60'  

Dump ship's entire track history